Time;durP1;ratioP1;P1;durP2;ratioP2;P2;SDS_P1;SDS_P2;PMS_P1;PMS_P2;Temp;Humidity;BMP_temperature;BMP_pressure;BME280_temperature;BME280_humidity;BME280_pressure;Samples;Min_cycle;Max_cycle;Signal;HPM_P1;HPM_P2
2022/06/09 00:01:04;;;;;;;;;;;;;;;21.60;29.49;97272.00;4917014;29;996;-74
2022/06/09 00:03:53;;;;;;;;;;;;;;;21.35;29.85;97261.63;4921765;29;1143;-74
2022/06/09 00:06:18;;;;;;;;;;;;;;;22.03;29.46;97264.69;4897641;29;1045;-75
2022/06/09 00:08:45;;;;;;;;;;;;;;;22.16;29.47;97256.88;4878673;29;995;-74
2022/06/09 00:11:11;;;;;;;;;;;;;;;21.99;29.10;97252.69;4879132;29;1034;-74
2022/06/09 00:13:38;;;;;;;;;;;;;;;21.68;29.83;97253.50;4860618;29;1010;-75
2022/06/09 00:16:05;;;;;;;;;;;;;;;21.61;29.93;97244.50;4844440;29;997;-74
2022/06/09 00:18:30;;;;;;;;;;;;;;;21.58;30.00;97234.88;4824009;29;1060;-74
2022/06/09 00:20:55;;;;;;;;;;;;;;;21.65;29.74;97245.91;4823937;29;1225;-74
2022/06/09 00:23:21;;;;;;;;;;;;;;;21.57;29.84;97247.47;4831858;29;1037;-75
2022/06/09 00:25:46;;;;;;;;;;;;;;;21.62;29.85;97246.84;4842143;29;1919;-74
2022/06/09 00:28:12;;;;;;;;;;;;;;;21.47;29.83;97243.78;4842024;29;1054;-75
2022/06/09 00:30:37;;;;;;;;;;;;;;;21.50;29.75;97242.06;4842142;29;1050;-74
2022/06/09 00:33:03;;;;;;;;;;;;;;;21.43;30.15;97245.16;4859814;29;1033;-75
2022/06/09 00:35:28;;;;;;;;;;;;;;;21.53;29.71;97241.13;4860548;29;1009;-75
2022/06/09 00:37:55;;;;;;;;;;;;;;;21.65;29.53;97245.13;4860303;29;999;-74
2022/06/09 00:40:21;;;;;;;;;;;;;;;21.35;29.90;97244.66;4888239;29;1143;-74
2022/06/09 00:42:46;;;;;;;;;;;;;;;21.54;29.61;97242.72;4919011;28;1045;-74
2022/06/09 00:45:30;;;;;;;;;;;;;;;21.89;29.72;97245.41;5019120;28;1902;-74
2022/06/09 00:48:16;;;;;;;;;;;;;;;22.16;29.42;97250.41;5034573;28;1042;-75
2022/06/09 00:50:41;;;;;;;;;;;;;;;22.36;28.80;97260.09;5034552;28;1116;-74
2022/06/09 00:53:08;;;;;;;;;;;;;;;22.48;28.58;97260.44;5035501;28;1015;-75
2022/06/09 00:55:34;;;;;;;;;;;;;;;21.78;29.78;97254.34;4993373;28;1079;-75
2022/06/09 00:58:06;;;;;;;;;;;;;;;21.55;30.22;97258.44;4993171;28;1236;-74
2022/06/09 01:00:34;;;;;;;;;;;;;;;21.70;29.74;97255.84;4993154;28;943;-74
2022/06/09 01:03:00;;;;;;;;;;;;;;;21.45;30.06;97249.13;4993232;28;1258;-74
2022/06/09 01:05:26;;;;;;;;;;;;;;;21.54;29.92;97256.88;4992958;28;1914;-74
2022/06/09 01:07:52;;;;;;;;;;;;;;;21.54;29.79;97251.19;4976984;28;1102;-75
2022/06/09 01:10:17;;;;;;;;;;;;;;;21.61;29.92;97250.16;4993011;28;946;-74
2022/06/09 01:12:43;;;;;;;;;;;;;;;21.71;29.78;97248.94;4976840;28;1008;-74
2022/06/09 01:15:09;;;;;;;;;;;;;;;21.74;29.46;97240.31;4993224;28;1043;-74
2022/06/09 01:17:35;;;;;;;;;;;;;;;21.67;29.57;97242.63;4993552;28;1077;-75
2022/06/09 01:20:06;;;;;;;;;;;;;;;21.40;29.86;97246.91;4993519;28;984;-74
2022/06/09 01:22:47;;;;;;;;;;;;;;;21.51;30.03;97238.78;4957785;29;1244;-74
2022/06/09 01:25:21;;;;;;;;;;;;;;;21.50;30.10;97242.06;4957496;29;1963;-74
2022/06/09 01:28:05;;;;;;;;;;;;;;;21.53;29.90;97239.09;4977467;28;1020;-74
2022/06/09 01:30:46;;;;;;;;;;;;;;;21.54;29.91;97242.72;4977147;28;1042;-74
2022/06/09 01:33:12;;;;;;;;;;;;;;;21.38;30.14;97246.53;4977224;28;979;-74
2022/06/09 01:35:42;;;;;;;;;;;;;;;21.58;29.75;97251.88;4980057;28;1055;-74
2022/06/09 01:38:07;;;;;;;;;;;;;;;22.17;29.40;97247.13;4980493;28;943;-74
2022/06/09 01:40:32;;;;;;;;;;;;;;;22.31;29.24;97245.75;4979746;28;972;-74
2022/06/09 01:42:58;;;;;;;;;;;;;;;22.03;29.38;97244.84;4996301;28;951;-75
2022/06/09 01:45:42;;;;;;;;;;;;;;;21.89;29.51;97248.25;5006579;28;1902;-74
2022/06/09 01:48:09;;;;;;;;;;;;;;;21.82;29.39;97255.78;5015531;28;1136;-74
2022/06/09 01:50:37;;;;;;;;;;;;;;;21.51;30.00;97252.16;4976236;28;974;-74
2022/06/09 01:53:05;;;;;;;;;;;;;;;21.48;30.08;97253.06;4963079;28;1109;-74
2022/06/09 01:55:30;;;;;;;;;;;;;;;21.72;29.70;97250.53;4992881;28;1019;-74
2022/06/09 01:57:57;;;;;;;;;;;;;;;21.78;29.63;97254.34;4976468;28;1090;-74
2022/06/09 02:00:23;;;;;;;;;;;;;;;21.50;29.94;97251.34;4976021;28;1101;-74
2022/06/09 02:02:54;;;;;;;;;;;;;;;21.51;30.16;97247.28;4975876;28;1014;-74
2022/06/09 02:05:21;;;;;;;;;;;;;;;21.39;30.14;97247.34;4976565;28;1969;-74
2022/06/09 02:07:46;;;;;;;;;;;;;;;21.47;29.96;97243.78;4976321;28;1393;-74
2022/06/09 02:10:12;;;;;;;;;;;;;;;21.43;30.12;97242.34;4976128;28;1057;-74
2022/06/09 02:12:37;;;;;;;;;;;;;;;21.57;29.94;97244.63;4976063;28;1093;-75
2022/06/09 02:15:03;;;;;;;;;;;;;;;21.54;29.76;97234.22;4976249;28;1025;-74
2022/06/09 02:17:28;;;;;;;;;;;;;;;21.38;30.04;97237.28;4975775;28;1255;-75
2022/06/09 02:19:54;;;;;;;;;;;;;;;21.43;29.96;97228.97;4975822;28;1044;-74
2022/06/09 02:22:19;;;;;;;;;;;;;;;21.71;30.38;97227.09;4976203;28;1001;-74
2022/06/09 02:24:45;;;;;;;;;;;;;;;22.14;29.69;97225.41;4975586;28;1975;-74
2022/06/09 02:27:10;;;;;;;;;;;;;;;22.22;29.37;97229.50;4976102;28;911;-74
2022/06/09 02:29:36;;;;;;;;;;;;;;;22.06;29.38;97224.06;5006023;28;1078;-74
2022/06/09 02:32:01;;;;;;;;;;;;;;;21.75;29.80;97224.88;5029696;28;1070;-74
2022/06/09 02:34:27;;;;;;;;;;;;;;;21.51;30.13;97226.66;5034365;28;920;-75
2022/06/09 02:36:52;;;;;;;;;;;;;;;21.58;29.80;97226.38;5015126;28;937;-75
2022/06/09 02:39:18;;;;;;;;;;;;;;;21.59;29.70;97225.13;5015193;28;1086;-75
2022/06/09 02:41:43;;;;;;;;;;;;;;;21.55;29.82;97227.31;5014848;28;938;-74
2022/06/09 02:44:09;;;;;;;;;;;;;;;21.56;29.93;97229.69;5014745;28;1902;-74
2022/06/09 02:46:34;;;;;;;;;;;;;;;21.47;29.92;97229.63;5014806;28;978;-74
2022/06/09 02:48:59;;;;;;;;;;;;;;;21.53;29.78;97227.78;5014861;28;1044;-74
2022/06/09 02:51:26;;;;;;;;;;;;;;;21.65;29.53;97240.25;5014365;28;990;-74
2022/06/09 02:53:52;;;;;;;;;;;;;;;21.61;29.61;97239.63;5015829;28;970;-74
2022/06/09 02:56:17;;;;;;;;;;;;;;;21.44;29.73;97235.41;5034327;28;1061;-75
2022/06/09 02:58:43;;;;;;;;;;;;;;;21.48;29.54;97241.75;5034238;28;1180;-74
2022/06/09 03:01:08;;;;;;;;;;;;;;;21.47;29.63;97234.50;5033949;28;983;-75
2022/06/09 03:03:34;;;;;;;;;;;;;;;21.55;29.85;97224.47;5034077;28;1125;-74
2022/06/09 03:05:59;;;;;;;;;;;;;;;21.45;29.55;97231.31;5034446;28;1980;-74
2022/06/09 03:08:26;;;;;;;;;;;;;;;21.46;29.54;97228.06;5014018;28;1011;-74
2022/06/09 03:10:51;;;;;;;;;;;;;;;21.58;29.62;97229.22;5014360;28;1238;-74
2022/06/09 03:13:17;;;;;;;;;;;;;;;21.75;30.03;97230.56;5013940;28;992;-75
2022/06/09 03:15:42;;;;;;;;;;;;;;;22.15;29.50;97229.81;5013999;28;1030;-74
2022/06/09 03:18:08;;;;;;;;;;;;;;;22.32;28.97;97225.44;5014162;28;1060;-75
2022/06/09 03:20:33;;;;;;;;;;;;;;;21.87;29.57;97223.22;5014020;28;1027;-74
2022/06/09 03:22:59;;;;;;;;;;;;;;;21.77;29.40;97230.91;5013794;28;978;-75
2022/06/09 03:25:24;;;;;;;;;;;;;;;21.54;29.64;97225.72;5013706;28;1906;-74
2022/06/09 03:27:50;;;;;;;;;;;;;;;21.63;29.32;97222.16;4981269;28;1116;-75
2022/06/09 03:30:16;;;;;;;;;;;;;;;21.76;29.40;97223.66;5013806;28;1028;-75
2022/06/09 03:32:41;;;;;;;;;;;;;;;21.68;29.48;97227.22;5013455;28;943;-75
2022/06/09 03:35:07;;;;;;;;;;;;;;;21.76;29.67;97223.66;5014074;28;939;-74
2022/06/09 03:37:32;;;;;;;;;;;;;;;21.54;29.84;97220.06;4974567;28;1163;-75
2022/06/09 03:39:58;;;;;;;;;;;;;;;21.47;29.87;97217.53;5003116;28;943;-74
2022/06/09 03:42:23;;;;;;;;;;;;;;;21.49;29.96;97215.78;5012760;28;980;-75
2022/06/09 03:44:48;;;;;;;;;;;;;;;21.55;29.75;97213.16;5013342;28;1902;-74
2022/06/09 03:47:14;;;;;;;;;;;;;;;21.33;29.97;97216.00;5013300;28;1333;-74
2022/06/09 03:49:40;;;;;;;;;;;;;;;21.16;30.50;97211.78;4994011;28;1041;-74
2022/06/09 03:52:05;;;;;;;;;;;;;;;21.48;29.66;97222.72;4993720;28;1014;-74
2022/06/09 03:54:31;;;;;;;;;;;;;;;21.40;30.03;97220.59;4993737;28;1016;-74
2022/06/09 03:56:56;;;;;;;;;;;;;;;21.33;29.99;97225.28;4993919;28;1047;-75
2022/06/09 03:59:22;;;;;;;;;;;;;;;21.78;29.31;97226.81;4993811;28;996;-75
2022/06/09 04:01:47;;;;;;;;;;;;;;;22.23;29.18;97227.47;4993973;28;958;-74
2022/06/09 04:04:13;;;;;;;;;;;;;;;22.10;29.32;97221.88;4993238;28;1994;-74
2022/06/09 04:06:38;;;;;;;;;;;;;;;21.74;29.56;97214.81;4993949;28;975;-74
2022/06/09 04:09:04;;;;;;;;;;;;;;;21.48;29.76;97214.22;5008113;28;981;-75
2022/06/09 04:11:29;;;;;;;;;;;;;;;21.64;29.56;97213.19;5013354;28;1041;-75
2022/06/09 04:13:55;;;;;;;;;;;;;;;21.33;29.97;97213.97;5013085;28;956;-75
2022/06/09 04:16:22;;;;;;;;;;;;;;;21.49;29.67;97212.97;5013298;28;1022;-75
2022/06/09 04:18:47;;;;;;;;;;;;;;;21.53;29.99;97221.31;4993494;28;939;-75
2022/06/09 04:21:13;;;;;;;;;;;;;;;21.45;29.80;97231.31;5011440;28;1160;-74
2022/06/09 04:23:38;;;;;;;;;;;;;;;21.57;29.81;97227.66;5033204;28;929;-74
2022/06/09 04:26:03;;;;;;;;;;;;;;;21.54;30.03;97237.06;5032687;28;1914;-74
2022/06/09 04:28:29;;;;;;;;;;;;;;;21.46;30.11;97235.75;5032140;28;1413;-74
2022/06/09 04:30:54;;;;;;;;;;;;;;;21.39;30.45;97238.84;5032461;28;1311;-74
2022/06/09 04:33:20;;;;;;;;;;;;;;;21.62;29.71;97227.03;5032340;28;1233;-75
2022/06/09 04:35:45;;;;;;;;;;;;;;;21.47;29.86;97235.28;5032006;28;1281;-75
2022/06/09 04:38:12;;;;;;;;;;;;;;;21.65;29.66;97239.47;5032464;28;1151;-74
2022/06/09 04:40:38;;;;;;;;;;;;;;;21.59;29.68;97230.78;5032574;28;1288;-75
2022/06/09 04:43:05;;;;;;;;;;;;;;;21.58;30.03;97247.00;5032576;28;1233;-75
2022/06/09 04:45:30;;;;;;;;;;;;;;;21.64;29.59;97238.69;4961980;28;1910;-74
2022/06/09 04:47:56;;;;;;;;;;;;;;;21.64;29.82;97243.56;4963463;28;1230;-75
2022/06/09 04:50:21;;;;;;;;;;;;;;;21.20;30.28;97238.72;4979405;28;1402;-75
2022/06/09 04:52:47;;;;;;;;;;;;;;;21.98;30.08;97234.91;4965259;28;1388;-74
2022/06/09 04:55:12;;;;;;;;;;;;;;;22.65;30.08;97236.22;4982731;28;1255;-74
2022/06/09 04:57:38;;;;;;;;;;;;;;;21.97;30.99;97246.72;4986119;28;1379;-75
2022/06/09 05:00:04;;;;;;;;;;;;;;;21.52;31.44;97253.72;4987483;28;1365;-74
2022/06/09 05:02:30;;;;;;;;;;;;;;;21.45;31.21;97256.81;4988005;28;1207;-75
2022/06/09 05:04:56;;;;;;;;;;;;;;;21.61;30.64;97256.59;4984899;28;1971;-74
2022/06/09 05:07:23;;;;;;;;;;;;;;;21.59;30.43;97264.75;4977600;28;1046;-74
2022/06/09 05:09:48;;;;;;;;;;;;;;;21.59;30.17;97259.09;4977109;28;1059;-74
2022/06/09 05:12:13;;;;;;;;;;;;;;;21.49;30.37;97265.94;4977448;28;995;-75
2022/06/09 05:14:39;;;;;;;;;;;;;;;21.46;30.39;97256.34;4977387;28;979;-74
2022/06/09 05:17:05;;;;;;;;;;;;;;;21.53;30.37;97260.94;5041920;28;1085;-75
2022/06/09 05:19:30;;;;;;;;;;;;;;;21.33;30.37;97284.72;5006859;28;919;-75
2022/06/09 05:21:56;;;;;;;;;;;;;;;21.38;30.17;97259.91;5007100;28;991;-74
2022/06/09 05:24:21;;;;;;;;;;;;;;;21.35;29.90;97261.63;5058418;28;1953;-74
2022/06/09 05:26:47;;;;;;;;;;;;;;;21.55;29.53;97270.56;5057774;28;1145;-73
2022/06/09 05:29:13;;;;;;;;;;;;;;;21.94;29.46;97267.47;5058094;28;956;-74
2022/06/09 05:31:39;;;;;;;;;;;;;;;22.18;28.85;97276.25;5057889;28;898;-74
2022/06/09 05:34:04;;;;;;;;;;;;;;;22.05;28.71;97267.81;5057897;28;878;-73
2022/06/09 05:36:29;;;;;;;;;;;;;;;21.72;29.03;97267.53;5057714;28;1000;-74
2022/06/09 05:47:06;;;;;;;;;;;;;;;21.60;29.15;97249.34;5055799;28;1429;-77
2022/06/09 05:49:32;;;;;;;;;;;;;;;21.52;28.81;97253.72;5058107;28;1548;-74
2022/06/09 05:51:57;;;;;;;;;;;;;;;21.50;29.12;97253.38;5058088;28;1626;-72
2022/06/09 05:54:23;;;;;;;;;;;;;;;21.63;30.99;97262.59;5057865;28;983;-74
2022/06/09 05:56:48;;;;;;;;;;;;;;;21.67;31.59;97260.41;5057242;28;949;-74
2022/06/09 05:59:14;;;;;;;;;;;;;;;21.78;31.29;97263.63;5057766;28;1196;-74
2022/06/09 06:01:39;;;;;;;;;;;;;;;21.54;31.55;97254.03;5057261;28;966;-74
2022/06/09 06:04:05;;;;;;;;;;;;;;;21.55;31.77;97261.25;5005616;28;988;-74
2022/06/09 06:06:33;;;;;;;;;;;;;;;21.53;31.60;97258.91;5057110;28;2010;-74
2022/06/09 06:08:59;;;;;;;;;;;;;;;21.59;31.45;97256.25;5056943;28;1152;-74
2022/06/09 06:11:24;;;;;;;;;;;;;;;21.61;31.85;97250.94;5057142;28;1052;-73
2022/06/09 06:13:50;;;;;;;;;;;;;;;21.77;31.61;97258.44;5057206;28;1099;-77
2022/06/09 06:16:16;;;;;;;;;;;;;;;21.79;30.94;97255.91;5057270;28;1003;-77
2022/06/09 06:18:41;;;;;;;;;;;;;;;21.74;30.77;97256.50;4956090;29;1033;-77
2022/06/09 06:21:06;;;;;;;;;;;;;;;21.77;30.61;97270.53;4954824;29;1976;-77
2022/06/09 06:23:32;;;;;;;;;;;;;;;21.81;30.04;97265.53;4939977;29;995;-76
2022/06/09 06:25:57;;;;;;;;;;;;;;;21.85;29.75;97265.38;4956417;29;1979;-77
2022/06/09 06:28:23;;;;;;;;;;;;;;;21.74;29.76;97265.78;4953450;28;1836;-76
2022/06/09 06:30:48;;;;;;;;;;;;;;;21.76;29.49;97268.97;4917503;29;1234;-77
2022/06/09 06:33:14;;;;;;;;;;;;;;;21.73;29.66;97264.22;4918381;29;1048;-77
2022/06/09 06:35:39;;;;;;;;;;;;;;;21.74;29.34;97259.34;4917289;29;1432;-77
2022/06/09 06:38:05;;;;;;;;;;;;;;;21.67;29.29;97260.41;4917728;29;1001;-78
2022/06/09 06:40:30;;;;;;;;;;;;;;;21.74;29.09;97265.78;4917867;29;1037;-77
2022/06/09 06:42:56;;;;;;;;;;;;;;;21.84;29.12;97264.59;4917841;29;1863;-77
2022/06/09 06:45:21;;;;;;;;;;;;;;;21.92;28.55;97259.44;4917030;29;1895;-77
2022/06/09 06:47:47;;;;;;;;;;;;;;;21.78;28.80;97257.94;4917214;29;1705;-79
2022/06/09 06:50:12;;;;;;;;;;;;;;;21.72;28.96;97254.16;4985489;28;1386;-77
2022/06/09 06:52:38;;;;;;;;;;;;;;;21.73;28.72;97258.56;5014030;28;1231;-76
2022/06/09 06:55:06;;;;;;;;;;;;;;;21.65;28.80;97257.25;5013979;28;1032;-77
2022/06/09 06:57:33;;;;;;;;;;;;;;;21.68;28.91;97256.31;4965202;28;1091;-77
2022/06/09 06:59:58;;;;;;;;;;;;;;;21.80;28.72;97261.09;5013112;28;1500;-77
2022/06/09 07:02:24;;;;;;;;;;;;;;;21.88;28.50;97269.34;4989754;28;975;-78
2022/06/09 07:04:49;;;;;;;;;;;;;;;21.85;28.51;97271.81;4985813;28;1943;-78
2022/06/09 07:07:15;;;;;;;;;;;;;;;21.76;29.05;97271.78;4987108;28;2273;-75
2022/06/09 07:09:40;;;;;;;;;;;;;;;22.06;29.22;97264.50;4991004;28;1468;-76
2022/06/09 07:12:06;;;;;;;;;;;;;;;22.38;29.27;97264.50;4984276;28;1479;-76
2022/06/09 07:14:33;;;;;;;;;;;;;;;22.25;29.98;97267.47;4991996;28;1594;-76
2022/06/09 07:16:59;;;;;;;;;;;;;;;22.76;29.64;97256.41;4944070;28;1436;-76
2022/06/09 07:19:25;;;;;;;;;;;;;;;23.15;30.19;97270.94;4974727;28;976;-77
2022/06/09 07:21:50;;;;;;;;;;;;;;;23.04;30.28;97273.47;4975145;28;968;-72
2022/06/09 07:24:16;;;;;;;;;;;;;;;22.18;31.63;97270.59;4974767;28;1962;-73
2022/06/09 07:26:41;;;;;;;;;;;;;;;23.01;31.16;97268.75;4975525;28;1056;-72
2022/06/09 07:29:07;;;;;;;;;;;;;;;23.35;31.21;97270.44;4975667;28;1111;-72
2022/06/09 07:31:32;;;;;;;;;;;;;;;23.32;31.53;97272.22;4975162;28;1034;-75
2022/06/09 07:33:58;;;;;;;;;;;;;;;23.39;31.92;97274.72;4975607;28;1047;-74
2022/06/09 07:36:24;;;;;;;;;;;;;;;23.65;31.81;97271.53;4966541;28;1477;-69
2022/06/09 07:38:49;;;;;;;;;;;;;;;23.51;32.20;97260.81;4937112;28;1959;-74
2022/06/09 07:41:15;;;;;;;;;;;;;;;22.67;33.73;97266.94;4954964;28;1527;-74
2022/06/09 07:43:40;;;;;;;;;;;;;;;23.32;32.76;97263.69;4944862;28;1618;-74
2022/06/09 07:46:07;;;;;;;;;;;;;;;23.29;33.24;97261.78;4936317;29;1918;-74
2022/06/09 07:48:32;;;;;;;;;;;;;;;23.59;32.87;97247.88;4978212;28;1006;-76
2022/06/09 07:50:58;;;;;;;;;;;;;;;23.73;33.39;97250.06;4954714;29;1051;-73
2022/06/09 07:53:23;;;;;;;;;;;;;;;23.83;33.41;97254.47;4955507;29;1494;-74
2022/06/09 07:55:49;;;;;;;;;;;;;;;24.04;33.30;97268.91;4955053;29;967;-74
2022/06/09 07:58:15;;;;;;;;;;;;;;;23.92;33.70;97251.56;4955437;29;1127;-73
2022/06/09 08:00:40;;;;;;;;;;;;;;;23.84;33.97;97250.34;4955041;29;1311;-75
2022/06/09 08:03:06;;;;;;;;;;;;;;;23.64;34.14;97250.09;4955260;29;941;-73
2022/06/09 08:05:32;;;;;;;;;;;;;;;23.94;34.38;97253.16;4955116;29;1991;-73
2022/06/09 08:07:57;;;;;;;;;;;;;;;24.26;33.67;97252.38;4955285;29;966;-73
2022/06/09 08:10:23;;;;;;;;;;;;;;;24.30;33.33;97244.47;4983570;28;1048;-72
2022/06/09 08:12:49;;;;;;;;;;;;;;;24.54;33.08;97249.41;4993307;28;1045;-73
2022/06/09 08:15:15;;;;;;;;;;;;;;;24.52;32.90;97252.75;4993975;28;1051;-74
2022/06/09 08:17:41;;;;;;;;;;;;;;;23.53;34.34;97250.56;4993700;28;1030;-77
2022/06/09 08:20:06;;;;;;;;;;;;;;;23.06;34.79;97262.44;4994403;28;1152;-74
2022/06/09 08:22:32;;;;;;;;;;;;;;;23.57;34.01;97258.91;4976390;28;1045;-74
2022/06/09 08:24:57;;;;;;;;;;;;;;;23.56;34.28;97260.94;4993274;28;1907;-75
2022/06/09 08:27:23;;;;;;;;;;;;;;;24.27;32.77;97253.97;5011838;28;1014;-73
2022/06/09 08:29:48;;;;;;;;;;;;;;;23.85;33.75;97263.28;5057539;28;1022;-74
2022/06/09 08:32:14;;;;;;;;;;;;;;;23.26;34.39;97271.28;5058754;28;980;-76
2022/06/09 08:34:39;;;;;;;;;;;;;;;22.94;34.17;97257.69;5058612;28;975;-76
2022/06/09 08:37:04;;;;;;;;;;;;;;;22.76;33.58;97262.06;5058838;28;1022;-75
2022/06/09 08:39:30;;;;;;;;;;;;;;;22.90;32.94;97265.56;5058888;28;938;-75
2022/06/09 08:41:58;;;;;;;;;;;;;;;22.57;32.78;97268.97;5058278;28;1349;-76
2022/06/09 08:44:39;;;;;;;;;;;;;;;22.70;32.04;97266.00;5058142;28;1917;-75
2022/06/09 08:47:11;;;;;;;;;;;;;;;22.31;32.36;97263.53;5058725;28;902;-76
2022/06/09 08:49:40;;;;;;;;;;;;;;;22.50;31.76;97272.09;5036170;28;1103;-75
2022/06/09 08:52:08;;;;;;;;;;;;;;;22.49;31.38;97267.69;5035984;28;945;-75
2022/06/09 08:54:34;;;;;;;;;;;;;;;22.62;30.83;97266.28;5019138;28;1025;-75
2022/06/09 08:57:01;;;;;;;;;;;;;;;22.44;31.00;97271.16;4996314;28;1556;-76
2022/06/09 08:59:28;;;;;;;;;;;;;;;22.33;30.81;97272.38;4996261;28;1132;-75
2022/06/09 09:02:00;;;;;;;;;;;;;;;22.02;31.09;97260.25;4996174;28;1085;-75
2022/06/09 09:04:26;;;;;;;;;;;;;;;22.10;30.78;97264.38;4996132;28;1986;-75
2022/06/09 09:07:10;;;;;;;;;;;;;;;22.06;30.75;97255.22;4996483;28;1722;-76
2022/06/09 09:09:36;;;;;;;;;;;;;;;22.40;29.98;97259.16;4996229;28;1203;-75
2022/06/09 09:12:07;;;;;;;;;;;;;;;22.25;30.12;97254.06;4996412;28;1063;-75
2022/06/09 09:14:46;;;;;;;;;;;;;;;22.10;30.22;97247.38;4996128;28;969;-75
2022/06/09 09:17:17;;;;;;;;;;;;;;;22.06;30.24;97243.91;4979545;28;950;-76
2022/06/09 09:19:48;;;;;;;;;;;;;;;22.01;30.16;97250.19;4998758;28;1012;-76
2022/06/09 09:22:22;;;;;;;;;;;;;;;21.91;30.22;97246.50;4976633;28;969;-75
2022/06/09 09:24:55;;;;;;;;;;;;;;;22.18;29.73;97254.38;4976086;28;1894;-76
2022/06/09 09:27:29;;;;;;;;;;;;;;;22.02;29.84;97246.09;4979616;28;904;-75
2022/06/09 09:29:55;;;;;;;;;;;;;;;22.07;29.56;97243.47;4979638;28;985;-76
2022/06/09 09:32:24;;;;;;;;;;;;;;;21.89;30.09;97239.75;4996289;28;1258;-76
2022/06/09 09:34:50;;;;;;;;;;;;;;;22.18;29.63;97239.44;4940946;29;1139;-75
2022/06/09 09:37:18;;;;;;;;;;;;;;;21.95;29.75;97235.84;4975561;28;1361;-76
2022/06/09 09:39:46;;;;;;;;;;;;;;;21.88;29.82;97235.34;4918381;29;942;-75
2022/06/09 09:42:13;;;;;;;;;;;;;;;22.02;29.64;97235.56;4898584;29;1224;-76
2022/06/09 09:44:39;;;;;;;;;;;;;;;21.76;29.88;97223.66;4862066;29;1963;-76
2022/06/09 09:47:04;;;;;;;;;;;;;;;21.88;29.82;97229.69;4846896;29;1082;-76
2022/06/09 09:49:40;;;;;;;;;;;;;;;21.86;29.58;97238.63;4862515;29;1002;-76
2022/06/09 09:52:24;;;;;;;;;;;;;;;21.98;29.40;97228.47;4842784;29;1081;-76
2022/06/09 09:54:49;;;;;;;;;;;;;;;21.66;30.11;97232.53;4825556;29;986;-76
2022/06/09 09:57:16;;;;;;;;;;;;;;;22.05;29.54;97231.00;4825532;29;1372;-75
2022/06/09 09:59:44;;;;;;;;;;;;;;;22.00;29.65;97231.59;4825265;29;1261;-76
2022/06/09 10:08:42;;;;;;;;;;;;;;;21.77;29.81;97219.56;4851555;29;1051;-76
2022/06/09 10:13:59;;;;;;;;;;;;;;;21.88;30.02;97230.47;4873168;29;2149;-76
2022/06/09 10:16:26;;;;;;;;;;;;;;;21.86;29.78;97218.78;4898759;29;1193;-76
2022/06/09 10:18:52;;;;;;;;;;;;;;;21.89;29.56;97220.72;4917952;29;1049;-75
2022/06/09 10:21:17;;;;;;;;;;;;;;;21.52;30.12;97214.09;4907973;29;956;-76
2022/06/09 10:23:49;;;;;;;;;;;;;;;22.01;29.31;97216.97;4970516;28;975;-76
2022/06/09 10:26:14;;;;;;;;;;;;;;;21.83;29.60;97212.03;4975069;28;1930;-76
2022/06/09 10:28:55;;;;;;;;;;;;;;;21.89;29.30;97206.56;4975250;28;1042;-76
2022/06/09 10:31:33;;;;;;;;;;;;;;;21.99;29.14;97213.81;4975003;28;1040;-76
2022/06/09 10:34:18;;;;;;;;;;;;;;;21.95;29.49;97209.56;4975625;28;1038;-76
2022/06/09 10:36:50;;;;;;;;;;;;;;;22.02;29.20;97200.75;4975058;28;1262;-76
2022/06/09 10:39:44;;;;;;;;;;;;;;;22.00;29.04;97203.28;4975038;28;978;-76
2022/06/09 10:42:14;;;;;;;;;;;;;;;21.59;29.87;97196.81;4906226;29;1084;-76
2022/06/09 10:44:46;;;;;;;;;;;;;;;21.81;29.74;97205.25;4880015;29;1903;-76
2022/06/09 10:55:49;;;;;;;;;;;;;;;21.79;29.80;97187.94;4903190;29;1039;-76
2022/06/09 10:58:24;;;;;;;;;;;;;;;21.73;29.63;97196.25;4879184;29;1045;-76
2022/06/09 11:00:50;;;;;;;;;;;;;;;21.84;29.76;97182.47;4864248;29;1005;-76
2022/06/09 11:03:17;;;;;;;;;;;;;;;21.81;29.44;97180.56;4879703;29;947;-76
2022/06/09 11:05:45;;;;;;;;;;;;;;;21.69;29.82;97181.44;4864605;29;1907;-76
2022/06/09 11:08:16;;;;;;;;;;;;;;;21.68;29.52;97185.53;4879050;29;932;-76
2022/06/09 11:10:48;;;;;;;;;;;;;;;21.60;29.66;97181.41;4879814;29;1237;-76
2022/06/09 11:13:25;;;;;;;;;;;;;;;21.74;29.71;97186.50;4879440;29;1165;-76
2022/06/09 11:15:56;;;;;;;;;;;;;;;21.64;29.68;97181.28;4879467;29;1019;-76
2022/06/09 11:18:40;;;;;;;;;;;;;;;21.36;30.15;97186.03;4875574;29;1171;-76
2022/06/09 11:21:06;;;;;;;;;;;;;;;21.69;29.48;97178.63;4899517;29;1066;-76
2022/06/09 11:23:40;;;;;;;;;;;;;;;21.92;28.96;97173.69;4935415;29;1028;-76
2022/06/09 11:26:14;;;;;;;;;;;;;;;21.70;29.64;97179.41;4935812;29;1910;-75
2022/06/09 11:29:06;;;;;;;;;;;;;;;21.62;29.50;97176.09;4935542;29;1077;-76
2022/06/09 11:32:09;;;;;;;;;;;;;;;21.55;29.82;97173.53;4935769;29;1046;-76
2022/06/09 11:34:50;;;;;;;;;;;;;;;21.55;29.46;97174.34;4841960;29;966;-76
2022/06/09 11:37:15;;;;;;;;;;;;;;;21.45;29.79;97174.72;4842161;29;967;-76
2022/06/09 11:39:45;;;;;;;;;;;;;;;21.57;29.35;97179.53;4842038;29;1206;-76
2022/06/09 11:42:14;;;;;;;;;;;;;;;21.63;29.30;97174.81;4842097;29;1160;-76
2022/06/09 11:44:40;;;;;;;;;;;;;;;21.63;29.26;97174.81;4842138;29;1911;-75
2022/06/09 11:47:13;;;;;;;;;;;;;;;21.47;29.43;97177.91;4842129;29;1083;-75
2022/06/09 11:49:52;;;;;;;;;;;;;;;21.64;29.34;97176.41;4830433;29;1140;-76
2022/06/09 11:52:21;;;;;;;;;;;;;;;21.57;29.52;97171.81;4857346;29;1144;-76
2022/06/09 11:54:50;;;;;;;;;;;;;;;21.45;29.82;97163.41;4841809;29;1046;-76
2022/06/09 11:57:16;;;;;;;;;;;;;;;21.32;29.72;97155.81;4841936;29;1108;-76
2022/06/09 11:59:50;;;;;;;;;;;;;;;21.69;29.07;97167.28;4841725;29;1056;-76
2022/06/09 12:02:26;;;;;;;;;;;;;;;21.75;28.92;97162.59;4805719;29;987;-76
2022/06/09 12:05:02;;;;;;;;;;;;;;;21.82;29.10;97168.00;4868148;29;1985;-76
2022/06/09 12:07:46;;;;;;;;;;;;;;;21.69;29.10;97167.28;4938251;29;965;-76
2022/06/09 12:10:18;;;;;;;;;;;;;;;21.46;29.44;97159.34;4953981;29;1168;-76
2022/06/09 12:12:44;;;;;;;;;;;;;;;21.44;29.58;97159.78;4954671;29;1045;-76
2022/06/09 12:15:15;;;;;;;;;;;;;;;21.66;29.37;97159.75;4935066;29;1057;-76
2022/06/09 12:17:53;;;;;;;;;;;;;;;21.32;29.84;97161.47;4935495;29;1134;-76
2022/06/09 12:20:27;;;;;;;;;;;;;;;21.53;29.41;97159.06;4934930;29;1188;-76
2022/06/09 12:23:13;;;;;;;;;;;;;;;21.43;29.54;97157.44;4928991;29;966;-76
2022/06/09 12:25:39;;;;;;;;;;;;;;;21.64;29.47;97158.63;4880763;29;1899;-76
2022/06/09 12:28:24;;;;;;;;;;;;;;;21.61;29.24;97159.56;4860245;29;1231;-76
2022/06/09 12:31:10;;;;;;;;;;;;;;;21.25;29.63;97156.06;4859701;29;975;-76
2022/06/09 12:33:35;;;;;;;;;;;;;;;21.46;29.33;97159.34;4841455;29;1113;-76
2022/06/09 12:36:03;;;;;;;;;;;;;;;21.55;29.29;97150.88;4862458;29;981;-76
2022/06/09 12:38:39;;;;;;;;;;;;;;;21.60;29.18;97153.09;4859774;29;1104;-76
2022/06/09 12:41:21;;;;;;;;;;;;;;;21.35;29.58;97154.09;4859606;29;1176;-76
2022/06/09 12:43:54;;;;;;;;;;;;;;;21.55;29.43;97145.22;4877975;29;1029;-76
2022/06/09 12:46:39;;;;;;;;;;;;;;;21.50;29.23;97159.97;4878237;29;1907;-76
2022/06/09 12:49:13;;;;;;;;;;;;;;;21.64;29.03;97153.75;4878188;29;1301;-76
2022/06/09 12:51:39;;;;;;;;;;;;;;;21.48;29.03;97151.94;4842903;29;994;-76
2022/06/09 12:54:05;;;;;;;;;;;;;;;21.27;29.72;97153.56;4859882;29;1040;-76
2022/06/09 12:56:34;;;;;;;;;;;;;;;21.54;29.00;97169.13;4860204;29;1030;-76
2022/06/09 12:59:02;;;;;;;;;;;;;;;21.47;29.30;97163.75;4859756;29;1839;-76
2022/06/09 13:01:29;;;;;;;;;;;;;;;21.58;29.15;97167.72;4843990;29;959;-76
2022/06/09 13:03:54;;;;;;;;;;;;;;;21.56;29.33;97172.28;4896224;29;1191;-76
2022/06/09 13:06:25;;;;;;;;;;;;;;;21.41;29.32;97174.09;4896843;29;1988;-76
2022/06/09 13:08:52;;;;;;;;;;;;;;;21.43;29.14;97172.38;4901524;29;966;-76
2022/06/09 13:14:22;;;;;;;;;;;;;;;21.99;29.04;97176.22;4915271;29;1457;-76
2022/06/09 13:16:48;;;;;;;;;;;;;;;22.35;29.10;97170.66;4900144;29;1669;-76
2022/06/09 13:19:14;;;;;;;;;;;;;;;22.51;28.80;97168.78;4900252;29;1376;-76
2022/06/09 13:21:40;;;;;;;;;;;;;;;22.30;28.89;97171.28;4887970;29;1030;-76
2022/06/09 13:24:26;;;;;;;;;;;;;;;22.02;29.40;97173.25;4918814;29;1546;-76
2022/06/09 13:26:52;;;;;;;;;;;;;;;21.68;29.93;97177.06;4901248;29;1450;-76
2022/06/09 13:29:24;;;;;;;;;;;;;;;21.64;30.07;97170.72;4918408;29;1352;-76
2022/06/09 13:31:53;;;;;;;;;;;;;;;21.69;29.70;97175.78;4911594;29;1640;-76
2022/06/09 13:34:26;;;;;;;;;;;;;;;21.41;29.72;97172.06;4894234;29;1601;-76